Alta, Wyoming
Current Conditions -  °F | °C
As of 4:56 PM on Wednesday 26 Nov 2014 (Local Time) from KDIJ Reporting Station
Broken Clouds Broken Clouds  
Wind Chill: 31°   Ceiling: 8000
Heat Index: 38°   Visibility: 10mi
Dew Point: 32°   Wind: 10mph
Humidity: 79%   Direction: 160°SSE
Pressure: 30.31"   Gusts: NA
Location:  43.77°N, 110.98°W
Report Text: KDIJ 262356Z AUTO 16009KT 10SM BKN080 03/00 A3031 RMK AO2 51005 T00330000 10038 20033 BKN V SCT SLP241
Loading
Personal Weather Stations






























Interactive Weather Map New forecast layout! Learn more

10-Day Weather Forecast

Advertisements
Track Severe Weather on mobile